createdAt,value
2016-08-10T00:04:51.849Z,71.36
2016-08-10T00:09:49.273Z,71.87
2016-08-10T00:14:47.147Z,71.65
2016-08-10T00:24:42.152Z,71.46
2016-08-10T00:29:40.038Z,71.46
2016-08-10T00:34:37.678Z,71.55
2016-08-10T00:39:35.258Z,71.75
2016-08-10T00:44:33.206Z,71.65
2016-08-10T00:49:30.796Z,71.75
2016-08-10T00:54:28.661Z,71.75
2016-08-10T00:59:26.241Z,71.65
2016-08-10T01:04:24.133Z,72.13
2016-08-10T01:09:21.788Z,71.65
2016-08-10T01:14:19.508Z,72.42
2016-08-10T01:19:17.233Z,72.03
2016-08-10T01:24:14.906Z,72.13
2016-08-10T01:29:12.505Z,72.03
2016-08-10T01:34:10.191Z,72.13
2016-08-10T01:39:07.833Z,72.23
2016-08-10T01:44:05.551Z,72.13
2016-08-10T01:49:03.130Z,72.86
2016-08-10T01:54:00.774Z,72.67
2016-08-10T01:58:58.556Z,72.80
2016-08-10T02:03:56.263Z,72.96
2016-08-10T02:08:53.984Z,72.77
2016-08-10T02:13:51.733Z,72.61
2016-08-10T02:18:49.384Z,72.48
2016-08-10T02:23:46.979Z,72.71
2016-08-10T02:28:44.783Z,72.58
2016-08-10T02:33:42.754Z,72.09
2016-08-10T02:38:40.585Z,72.67
2016-08-10T02:43:38.322Z,73.44
2016-08-10T02:48:35.897Z,73.44
2016-08-10T02:53:34.324Z,73.92
2016-08-10T02:58:31.696Z,73.92
2016-08-10T03:03:29.398Z,74.30
2016-08-10T03:08:27.086Z,74.69
2016-08-10T03:13:24.759Z,74.69
2016-08-10T03:18:22.542Z,75.84
2016-08-10T03:28:17.615Z,76.09
2016-08-10T03:33:15.375Z,76.09
2016-08-10T03:38:12.944Z,75.46
2016-08-10T03:43:10.701Z,75.71
2016-08-10T03:48:08.395Z,76.19
2016-08-10T03:53:05.919Z,75.65
2016-08-10T03:58:03.667Z,75.90
2016-08-10T04:03:01.426Z,76.14
2016-08-10T04:07:59.003Z,76.19
2016-08-10T04:12:56.780Z,76.29
2016-08-10T04:17:54.589Z,75.71
2016-08-10T04:22:52.274Z,75.71
2016-08-10T04:27:50.014Z,75.81
2016-08-10T04:32:47.758Z,75.32
2016-08-10T04:37:45.433Z,75.52
2016-08-10T04:42:43.075Z,75.62
2016-08-10T04:47:40.676Z,75.90
2016-08-10T04:52:38.330Z,75.13
2016-08-10T04:57:35.986Z,76.09
2016-08-10T05:02:33.714Z,75.42
2016-08-10T05:07:31.527Z,75.42
2016-08-10T05:12:29.427Z,76.00
2016-08-10T05:17:27.004Z,75.90
2016-08-10T05:22:24.720Z,75.71
2016-08-10T05:27:22.281Z,75.23
2016-08-10T05:32:20.073Z,74.94
2016-08-10T05:37:18.062Z,75.04
2016-08-10T05:42:15.687Z,75.04
2016-08-10T05:47:13.574Z,74.30
2016-08-10T05:52:11.343Z,71.30
2016-08-10T05:57:09.542Z,69.51
2016-08-10T06:02:07.447Z,70.11
2016-08-10T06:07:05.055Z,70.68
2016-08-10T06:12:02.750Z,70.98
2016-08-10T06:17:00.585Z,71.69
2016-08-10T06:21:58.316Z,71.69
2016-08-10T06:26:56.177Z,71.40
2016-08-10T06:31:53.942Z,71.34
2016-08-10T06:36:51.690Z,70.66
2016-08-10T06:41:49.648Z,70.79
2016-08-10T06:46:47.388Z,71.04
2016-08-10T06:51:45.184Z,71.53
2016-08-10T06:56:42.951Z,71.24
2016-08-10T07:01:40.809Z,71.04
2016-08-10T07:06:38.633Z,71.47
2016-08-10T07:11:36.313Z,71.43
2016-08-10T07:16:34.194Z,70.95
2016-08-10T07:21:31.850Z,70.79
2016-08-10T07:26:29.653Z,71.18
2016-08-10T07:31:28.480Z,70.79
2016-08-10T07:36:26.034Z,70.79
2016-08-10T07:41:23.625Z,70.98
2016-08-10T07:46:21.286Z,71.28
2016-08-10T07:51:18.918Z,70.31
2016-08-10T07:56:16.725Z,70.60
2016-08-10T08:01:14.627Z,70.06
2016-08-10T08:06:12.256Z,69.48
2016-08-10T08:11:10.185Z,66.56
2016-08-10T08:16:08.347Z,63.56
2016-08-10T08:21:06.670Z,60.34
2016-08-10T08:26:05.208Z,59.76
2016-08-10T08:31:02.658Z,62.60
2016-08-10T08:36:00.549Z,62.60
2016-08-10T08:40:58.735Z,62.89
2016-08-10T08:45:56.418Z,62.12
2016-08-10T08:50:54.199Z,62.37
2016-08-10T08:55:52.058Z,61.89
2016-08-10T09:00:49.600Z,60.83
2016-08-10T09:05:47.383Z,61.67
2016-08-10T09:10:44.811Z,61.86
2016-08-10T09:15:42.474Z,61.67
2016-08-10T09:20:40.455Z,61.41
2016-08-10T09:25:37.888Z,61.89
2016-08-10T09:30:35.373Z,61.67
2016-08-10T09:35:33.715Z,61.67
2016-08-10T09:40:31.130Z,61.86
2016-08-10T09:45:28.808Z,62.54
2016-08-10T09:50:26.523Z,61.67
2016-08-10T09:55:24.201Z,62.99
2016-08-10T10:00:21.702Z,62.02
2016-08-10T10:05:19.386Z,62.31
2016-08-10T10:10:16.993Z,61.93
2016-08-10T10:15:14.548Z,62.05
2016-08-10T10:20:12.170Z,62.51
2016-08-10T10:25:09.879Z,62.41
2016-08-10T10:30:07.561Z,62.79
2016-08-10T10:35:05.241Z,62.31
2016-08-10T10:45:00.400Z,61.38
2016-08-10T10:49:58.048Z,61.67
2016-08-10T10:59:53.187Z,62.70
2016-08-10T11:04:51.049Z,63.95
2016-08-10T11:09:48.751Z,64.15
2016-08-10T11:14:46.472Z,63.37
2016-08-10T11:19:44.051Z,63.37
2016-08-10T11:24:41.645Z,63.85
2016-08-10T11:29:39.350Z,63.57
2016-08-10T11:34:36.916Z,63.31
2016-08-10T11:39:34.478Z,62.79
2016-08-10T11:44:31.989Z,62.51
2016-08-10T11:49:29.690Z,62.51
2016-08-10T11:54:27.299Z,62.70
2016-08-10T11:59:24.867Z,62.41
2016-08-10T12:04:22.490Z,62.22
2016-08-10T12:09:21.087Z,61.90
2016-08-10T12:14:18.416Z,62.31
2016-08-10T12:19:15.926Z,61.64
2016-08-10T12:24:13.578Z,62.02
2016-08-10T12:29:11.168Z,62.60
2016-08-10T12:34:08.904Z,61.74
2016-08-10T12:39:07.491Z,60.71
2016-08-10T12:44:05.073Z,61.44
2016-08-10T12:49:02.607Z,63.09
2016-08-10T12:54:00.203Z,62.66
2016-08-10T12:58:57.765Z,62.86
2016-08-10T13:03:55.390Z,64.79
2016-08-10T13:08:52.937Z,64.59
2016-08-10T13:13:50.591Z,64.69
2016-08-10T13:18:48.087Z,64.79
2016-08-10T13:23:45.677Z,64.98
2016-08-10T13:28:43.306Z,65.17
2016-08-10T13:33:40.957Z,65.75
2016-08-10T13:38:38.723Z,64.89
2016-08-10T13:43:36.241Z,65.37
2016-08-10T13:48:34.737Z,65.66
2016-08-10T13:53:32.321Z,66.04
2016-08-10T13:58:30.095Z,65.37
2016-08-10T14:03:27.983Z,65.08
2016-08-10T14:08:25.499Z,65.66
2016-08-10T14:13:23.136Z,66.04
2016-08-10T14:18:20.894Z,67.30
2016-08-10T14:23:18.757Z,66.91
2016-08-10T14:28:16.469Z,65.59
2016-08-10T14:33:14.151Z,65.56
2016-08-10T14:38:12.090Z,65.95
2016-08-10T14:43:09.807Z,64.95
2016-08-10T14:48:07.498Z,66.88
2016-08-10T14:53:05.207Z,67.65
2016-08-10T14:58:02.851Z,69.64
2016-08-10T15:03:00.586Z,69.64
2016-08-10T15:07:58.261Z,69.45
2016-08-10T15:12:56.224Z,70.44
2016-08-10T15:17:53.928Z,69.57
2016-08-10T15:22:52.054Z,69.29
2016-08-10T15:27:49.789Z,69.48
2016-08-10T15:32:47.586Z,70.64
2016-08-10T15:37:45.449Z,70.64
2016-08-10T15:42:43.154Z,70.64
2016-08-10T15:47:40.826Z,71.37
2016-08-10T15:52:38.793Z,71.12
2016-08-10T15:57:36.872Z,70.54
2016-08-10T16:02:34.788Z,71.22
2016-08-10T16:07:32.586Z,71.98
2016-08-10T16:12:30.383Z,72.53
2016-08-10T16:17:28.230Z,71.66
2016-08-10T16:22:26.077Z,71.18
2016-08-10T16:27:23.943Z,71.95
2016-08-10T16:32:21.910Z,71.08
2016-08-10T16:37:19.731Z,71.47
2016-08-10T16:42:17.668Z,71.85
2016-08-10T16:47:15.447Z,71.85
2016-08-10T16:52:13.238Z,72.05
2016-08-10T16:57:11.009Z,71.95
2016-08-10T17:02:09.718Z,71.56
2016-08-10T17:07:07.346Z,72.43
2016-08-10T17:12:04.910Z,71.66
2016-08-10T17:17:02.680Z,72.14
2016-08-10T17:22:00.690Z,72.24
2016-08-10T17:26:58.845Z,71.76
2016-08-10T17:31:57.718Z,72.24
2016-08-10T17:36:55.497Z,72.08
2016-08-10T17:41:53.573Z,73.01
2016-08-10T17:46:51.335Z,72.43
2016-08-10T17:51:49.258Z,72.43
2016-08-10T17:56:47.010Z,72.81
2016-08-10T18:01:44.814Z,72.63
2016-08-10T18:06:42.852Z,71.66
2016-08-10T18:11:40.805Z,72.81
2016-08-10T18:16:38.717Z,72.81
2016-08-10T18:21:36.880Z,73.01
2016-08-10T18:31:32.261Z,72.63
2016-08-10T18:36:30.108Z,73.10
2016-08-10T18:41:27.973Z,72.97
2016-08-10T18:46:26.690Z,73.46
2016-08-10T18:51:24.436Z,73.20
2016-08-10T18:56:22.026Z,73.74
2016-08-10T19:01:19.795Z,73.55
2016-08-10T19:06:18.019Z,73.74
2016-08-10T19:11:15.873Z,73.65
2016-08-10T19:16:13.793Z,73.55
2016-08-10T19:21:12.548Z,73.16
2016-08-10T19:26:10.213Z,73.74
2016-08-10T19:31:07.981Z,73.07
2016-08-10T19:36:06.782Z,73.84
2016-08-10T19:41:04.520Z,73.46
2016-08-10T19:46:02.320Z,73.94
2016-08-10T19:51:00.244Z,72.97
2016-08-10T19:55:58.039Z,74.03
2016-08-10T20:00:56.026Z,74.03
2016-08-10T20:05:54.125Z,74.03
2016-08-10T20:10:51.879Z,74.19
2016-08-10T20:15:50.017Z,73.99
2016-08-10T20:20:48.129Z,74.09
2016-08-10T20:25:45.910Z,74.86
2016-08-10T20:30:43.798Z,74.29
2016-08-10T20:35:41.789Z,73.99
2016-08-10T20:40:39.731Z,74.86
2016-08-10T20:45:37.616Z,74.57
2016-08-10T20:50:35.454Z,73.80
2016-08-10T20:55:33.274Z,73.61
2016-08-10T21:00:31.070Z,73.61
2016-08-10T21:05:28.615Z,73.13
2016-08-10T21:10:26.235Z,73.13
2016-08-10T21:15:23.857Z,73.42
2016-08-10T21:20:21.720Z,73.61
2016-08-10T21:25:19.361Z,73.51
2016-08-10T21:30:17.056Z,73.71
2016-08-10T21:35:14.726Z,73.51
2016-08-10T21:40:12.362Z,73.19
2016-08-10T21:45:10.038Z,73.28
2016-08-10T21:50:08.683Z,73.09
2016-08-10T21:55:06.206Z,72.80
2016-08-10T22:00:03.814Z,73.00
2016-08-10T22:05:01.407Z,72.80
2016-08-10T22:09:59.100Z,73.28
2016-08-10T22:14:56.892Z,72.52
2016-08-10T22:19:54.588Z,73.00
2016-08-10T22:24:52.277Z,72.32
2016-08-10T22:29:49.905Z,72.52
2016-08-10T22:34:47.579Z,72.52
2016-08-10T22:39:45.041Z,72.90
2016-08-10T22:44:42.622Z,73.00
2016-08-10T22:49:40.551Z,73.00
2016-08-10T22:54:38.088Z,72.80
2016-08-10T22:59:35.842Z,72.71
2016-08-10T23:04:33.370Z,72.71
2016-08-10T23:09:31.072Z,72.48
2016-08-10T23:14:28.936Z,72.38
2016-08-10T23:19:26.429Z,72.52
2016-08-10T23:24:24.186Z,72.90
2016-08-10T23:29:21.782Z,72.52
2016-08-10T23:34:19.412Z,71.71
2016-08-10T23:39:16.977Z,72.48
2016-08-10T23:44:14.635Z,72.86
2016-08-10T23:49:12.322Z,72.38
2016-08-10T23:54:09.837Z,72.86
2016-08-10T23:59:07.456Z,72.09
